createdAt,value
2022-10-01T00:00:57.511Z,99899.16
2022-10-01T00:03:27.181Z,99898.28
2022-10-01T00:06:02.248Z,99908.97
2022-10-01T00:08:31.044Z,99898.44
2022-10-01T00:11:01.594Z,99888.53
2022-10-01T00:13:30.813Z,99890.81
2022-10-01T00:15:59.462Z,99887.56
2022-10-01T00:18:27.427Z,99896.56
2022-10-01T00:20:55.423Z,99888.34
2022-10-01T00:23:23.352Z,99887.81
2022-10-01T00:25:52.260Z,99889.84
2022-10-01T00:28:21.634Z,99889.75
2022-10-01T00:30:49.625Z,99895.34
2022-10-01T00:33:17.612Z,99890.84
2022-10-01T00:35:45.948Z,99889.50
2022-10-01T00:38:15.350Z,99889.28
2022-10-01T00:40:43.364Z,99904.50
2022-10-01T00:43:27.336Z,99899.59
2022-10-01T00:45:59.610Z,99905.66
2022-10-01T00:48:29.728Z,99905.00
2022-10-01T00:50:58.608Z,99900.09
2022-10-01T00:53:27.282Z,99900.38
2022-10-01T00:56:00.091Z,99903.22
2022-10-01T00:58:29.989Z,99899.13
2022-10-01T01:00:58.566Z,99899.91
2022-10-01T01:03:27.678Z,99909.09
2022-10-01T01:05:55.605Z,99912.88
2022-10-01T01:08:23.614Z,99914.34
2022-10-01T01:11:01.701Z,99908.47
2022-10-01T01:13:37.042Z,99903.53
2022-10-01T01:16:09.744Z,99901.00
2022-10-01T01:18:46.127Z,99902.94
2022-10-01T01:21:22.275Z,99902.53
2022-10-01T01:24:24.774Z,99905.91
2022-10-01T01:27:31.358Z,99907.66
2022-10-01T01:30:04.978Z,99898.13
2022-10-01T01:32:41.771Z,99896.47
2022-10-01T01:35:13.855Z,99898.56
2022-10-01T01:37:49.216Z,99891.72
2022-10-01T01:40:18.654Z,99893.44
2022-10-01T01:42:48.904Z,99897.91
2022-10-01T01:45:22.030Z,99896.75
2022-10-01T01:47:51.277Z,99894.72
2022-10-01T01:50:19.940Z,99892.19
2022-10-01T01:52:47.894Z,99905.84
2022-10-01T01:55:16.076Z,99907.28
2022-10-01T01:57:45.238Z,99908.66
2022-10-01T02:00:14.711Z,99921.16
2022-10-01T02:02:50.252Z,99912.69
2022-10-01T02:05:22.346Z,99928.13
2022-10-01T02:08:17.505Z,99919.47
2022-10-01T02:11:05.652Z,99914.28
2022-10-01T02:13:46.152Z,99921.22
2022-10-01T02:16:22.958Z,99928.28
2022-10-01T02:19:00.219Z,99918.03
2022-10-01T02:21:36.191Z,99911.88
2022-10-01T02:24:14.407Z,99920.28
2022-10-01T02:26:44.609Z,99910.53
2022-10-01T02:29:17.120Z,99912.03
2022-10-01T02:31:48.776Z,99896.94
2022-10-01T02:34:20.481Z,99892.50
2022-10-01T02:36:50.231Z,99879.91
2022-10-01T02:39:20.047Z,99892.06
2022-10-01T02:41:51.842Z,99911.56
2022-10-01T02:44:24.509Z,99915.97
2022-10-01T02:46:58.136Z,99928.84
2022-10-01T02:49:30.841Z,99924.63
2022-10-01T02:52:07.335Z,99920.84
2022-10-01T02:54:44.238Z,99904.97
2022-10-01T02:57:28.140Z,99918.53
2022-10-01T02:59:59.321Z,99920.06
2022-10-01T03:02:28.647Z,99913.16
2022-10-01T03:05:00.728Z,99913.22
2022-10-01T03:07:30.926Z,99909.50
2022-10-01T03:09:59.080Z,99923.81
2022-10-01T03:12:27.063Z,99910.06
2022-10-01T03:14:54.984Z,99900.22
2022-10-01T03:17:24.468Z,99910.09
2022-10-01T03:19:52.426Z,99904.59
2022-10-01T03:22:24.438Z,99918.72
2022-10-01T03:24:53.421Z,99917.00
2022-10-01T03:27:22.533Z,99919.09
2022-10-01T03:29:50.799Z,99922.38
2022-10-01T03:32:19.110Z,99920.28
2022-10-01T03:34:47.189Z,99917.16
2022-10-01T03:37:15.160Z,99923.97
2022-10-01T03:39:44.891Z,99937.97
2022-10-01T03:42:12.810Z,99929.56
2022-10-01T03:44:40.765Z,99943.50
2022-10-01T03:47:09.777Z,99947.72
2022-10-01T03:49:38.024Z,99957.34
2022-10-01T03:52:06.701Z,99957.22
2022-10-01T03:54:34.932Z,99963.81
2022-10-01T03:57:04.395Z,99964.03
2022-10-01T03:59:32.471Z,99980.28
2022-10-01T04:02:00.621Z,99979.84
2022-10-01T04:04:29.286Z,99977.53
2022-10-01T04:06:57.249Z,99982.53
2022-10-01T04:09:25.222Z,99984.19
2022-10-01T04:11:53.163Z,99977.44
2022-10-01T04:14:22.456Z,99979.53
2022-10-01T04:16:52.611Z,99975.53
2022-10-01T04:19:21.208Z,99974.75
2022-10-01T04:21:49.516Z,99984.59
2022-10-01T04:24:17.489Z,99996.19
2022-10-01T04:26:45.384Z,99996.72
2022-10-01T04:29:13.369Z,99999.47
2022-10-01T04:31:42.820Z,99993.00
2022-10-01T04:34:10.760Z,99994.34
2022-10-01T04:36:38.692Z,100003.28
2022-10-01T04:39:06.615Z,100004.91
2022-10-01T04:41:34.895Z,100007.78
2022-10-01T04:44:03.418Z,100006.25
2022-10-01T04:46:31.484Z,99999.72
2022-10-01T04:49:01.108Z,99994.03
2022-10-01T04:51:29.038Z,99986.47
2022-10-01T04:53:56.971Z,99980.28
2022-10-01T04:56:24.979Z,99985.22
2022-10-01T04:58:52.942Z,99990.47
2022-10-01T05:01:20.929Z,99996.50
2022-10-01T05:03:48.879Z,100007.56
2022-10-01T05:06:18.403Z,100013.72
2022-10-01T05:08:46.329Z,100014.88
2022-10-01T05:11:14.246Z,100014.53
2022-10-01T05:13:42.343Z,100023.16
2022-10-01T05:16:10.495Z,100030.44
2022-10-01T05:18:39.268Z,100018.91
2022-10-01T05:21:08.359Z,100021.53
2022-10-01T05:23:37.790Z,100017.94
2022-10-01T05:26:10.049Z,100023.53
2022-10-01T05:28:43.095Z,100033.78
2022-10-01T05:31:12.143Z,100026.03
2022-10-01T05:33:40.250Z,100020.22
2022-10-01T05:36:08.261Z,100026.75
2022-10-01T05:38:40.018Z,100029.72
2022-10-01T05:41:07.999Z,100028.50
2022-10-01T05:43:36.318Z,100033.31
2022-10-01T05:46:05.530Z,100034.25
2022-10-01T05:48:37.000Z,100020.53
2022-10-01T05:51:06.755Z,100032.91
2022-10-01T05:53:37.435Z,100041.09
2022-10-01T05:56:07.818Z,100041.16
2022-10-01T05:58:36.181Z,100047.47
2022-10-01T06:01:05.003Z,100046.81
2022-10-01T06:03:33.251Z,100051.53
2022-10-01T06:06:01.879Z,100054.25
2022-10-01T06:08:29.910Z,100059.91
2022-10-01T06:11:01.353Z,100058.81
2022-10-01T06:13:31.118Z,100062.00
2022-10-01T06:15:59.023Z,100067.97
2022-10-01T06:18:29.255Z,100074.00
2022-10-01T06:20:59.875Z,100076.59
2022-10-01T06:23:27.843Z,100083.59
2022-10-01T06:25:55.780Z,100090.31
2022-10-01T06:28:23.773Z,100079.34
2022-10-01T06:30:53.101Z,100088.25
2022-10-01T06:33:21.600Z,100092.94
2022-10-01T06:35:51.498Z,100100.28
2022-10-01T06:38:21.233Z,100101.81
2022-10-01T06:40:53.462Z,100102.41
2022-10-01T06:43:22.769Z,100108.94
2022-10-01T06:45:53.112Z,100117.56
2022-10-01T06:48:21.983Z,100124.03
2022-10-01T06:50:52.244Z,100128.19
2022-10-01T06:53:20.339Z,100142.72
2022-10-01T06:55:50.073Z,100138.97
2022-10-01T06:58:21.012Z,100149.22
2022-10-01T07:00:50.137Z,100153.22
2022-10-01T07:03:21.126Z,100157.84
2022-10-01T07:05:49.772Z,100153.00
2022-10-01T07:08:18.887Z,100165.16
2022-10-01T07:10:46.921Z,100166.28
2022-10-01T07:13:16.692Z,100170.53
2022-10-01T07:15:44.944Z,100168.97
2022-10-01T07:18:14.218Z,100169.28
2022-10-01T07:20:43.750Z,100173.09
2022-10-01T07:23:13.816Z,100175.34
2022-10-01T07:25:44.046Z,100181.56
2022-10-01T07:28:16.598Z,100195.06
2022-10-01T07:30:48.133Z,100194.41
2022-10-01T07:33:18.710Z,100198.97
2022-10-01T07:35:48.268Z,100206.91
2022-10-01T07:38:16.738Z,100202.84
2022-10-01T07:40:44.729Z,100202.94
2022-10-01T07:43:14.699Z,100211.13
2022-10-01T07:45:42.820Z,100219.94
2022-10-01T07:48:10.840Z,100234.19
2022-10-01T07:50:38.788Z,100227.19
2022-10-01T07:53:08.076Z,100226.59
2022-10-01T07:55:36.285Z,100239.09
2022-10-01T07:58:04.955Z,100233.69
2022-10-01T08:00:34.955Z,100240.47
2022-10-01T08:03:03.299Z,100245.03
2022-10-01T08:05:34.390Z,100244.84
2022-10-01T08:08:04.318Z,100245.97
2022-10-01T08:10:36.112Z,100243.00
2022-10-01T08:13:14.322Z,100242.06
2022-10-01T08:15:42.708Z,100240.09
2022-10-01T08:18:11.312Z,100244.22
2022-10-01T08:20:40.522Z,100243.38
2022-10-01T08:23:10.414Z,100237.88
2022-10-01T08:25:40.613Z,100240.97
2022-10-01T08:28:09.480Z,100237.53
2022-10-01T08:30:39.391Z,100250.31
2022-10-01T08:33:07.846Z,100247.31
2022-10-01T08:35:35.889Z,100251.16
2022-10-01T08:38:04.293Z,100260.69
2022-10-01T08:40:36.814Z,100263.56
2022-10-01T08:43:07.962Z,100271.09
2022-10-01T08:45:43.284Z,100265.56
2022-10-01T08:48:19.822Z,100269.09
2022-10-01T08:50:53.843Z,100261.63
2022-10-01T08:53:30.180Z,100277.06
2022-10-01T08:55:59.587Z,100279.84
2022-10-01T08:58:37.947Z,100281.34
2022-10-01T09:01:05.985Z,100284.22
2022-10-01T09:03:35.120Z,100289.91
2022-10-01T09:06:14.626Z,100293.69
2022-10-01T09:08:56.283Z,100295.28
2022-10-01T09:11:34.420Z,100296.97
2022-10-01T09:14:20.180Z,100293.66
2022-10-01T09:16:57.896Z,100297.50
2022-10-01T09:19:41.004Z,100294.06
2022-10-01T09:22:26.009Z,100301.06
2022-10-01T09:25:01.924Z,100297.50
2022-10-01T09:27:29.999Z,100298.28
2022-10-01T09:30:01.773Z,100298.75
2022-10-01T09:32:36.492Z,100300.78
2022-10-01T09:35:19.069Z,100302.00
2022-10-01T09:37:55.134Z,100300.44
2022-10-01T09:40:30.476Z,100299.66
2022-10-01T09:42:58.524Z,100301.59
2022-10-01T09:45:29.310Z,100304.94
2022-10-01T09:48:04.683Z,100314.94
2022-10-01T09:50:55.745Z,100306.19
2022-10-01T09:53:31.737Z,100317.88
2022-10-01T09:56:04.263Z,100313.31
2022-10-01T09:58:36.041Z,100316.81
2022-10-01T10:01:12.925Z,100315.94
2022-10-01T10:03:40.992Z,100323.78
2022-10-01T10:06:09.350Z,100316.00
2022-10-01T10:08:40.181Z,100321.34
2022-10-01T10:11:11.551Z,100332.13
2022-10-01T10:13:42.356Z,100326.31
2022-10-01T10:16:25.987Z,100320.25
2022-10-01T10:18:57.484Z,100329.97
2022-10-01T10:21:28.693Z,100328.06
2022-10-01T10:23:59.268Z,100330.81
2022-10-01T10:26:32.690Z,100329.19
2022-10-01T10:29:02.895Z,100333.69
2022-10-01T10:31:41.814Z,100334.44
2022-10-01T10:34:16.685Z,100344.09
2022-10-01T10:36:46.686Z,100334.31
2022-10-01T10:39:22.858Z,100328.28
2022-10-01T10:41:52.678Z,100330.13
2022-10-01T10:44:25.835Z,100340.78
2022-10-01T10:47:03.373Z,100334.59
2022-10-01T10:49:33.991Z,100338.16
2022-10-01T10:52:02.756Z,100332.78
2022-10-01T10:54:33.413Z,100338.97
2022-10-01T10:57:03.779Z,100338.13
2022-10-01T10:59:33.428Z,100344.25
2022-10-01T11:02:06.629Z,100337.13
2022-10-01T11:04:42.657Z,100336.88
2022-10-01T11:07:11.729Z,100351.03
2022-10-01T11:09:57.083Z,100345.69
2022-10-01T11:12:38.443Z,100347.34
2022-10-01T11:15:22.903Z,100350.94
2022-10-01T11:18:26.422Z,100353.41
2022-10-01T11:21:06.947Z,100356.97
2022-10-01T11:23:58.153Z,100346.50
2022-10-01T11:26:34.385Z,100343.97
2022-10-01T11:29:17.809Z,100343.16
2022-10-01T11:31:53.800Z,100341.47
2022-10-01T11:34:49.607Z,100345.00
2022-10-01T11:37:35.341Z,100337.94
2022-10-01T11:40:14.085Z,100331.84
2022-10-01T11:42:45.033Z,100328.31
2022-10-01T11:45:21.438Z,100330.09
2022-10-01T11:47:53.964Z,100322.09
2022-10-01T11:50:27.267Z,100331.91
2022-10-01T11:53:00.138Z,100332.78
2022-10-01T11:55:51.730Z,100338.09
2022-10-01T11:58:48.292Z,100336.38
2022-10-01T12:01:23.209Z,100324.00
2022-10-01T12:04:03.116Z,100332.00
2022-10-01T12:06:37.491Z,100329.31
2022-10-01T12:09:15.230Z,100319.63
2022-10-01T12:11:49.369Z,100324.97
2022-10-01T12:14:22.924Z,100318.72
2022-10-01T12:16:56.244Z,100320.53
2022-10-01T12:19:29.895Z,100323.19
2022-10-01T12:22:05.197Z,100330.28
2022-10-01T12:24:37.541Z,100327.63
2022-10-01T12:27:30.347Z,100322.28
2022-10-01T12:30:04.408Z,100332.06
2022-10-01T12:32:42.656Z,100325.84
2022-10-01T12:35:27.028Z,100322.28
2022-10-01T12:38:11.695Z,100331.16
2022-10-01T12:40:47.192Z,100331.19
2022-10-01T12:43:50.037Z,100332.94
2022-10-01T12:46:27.642Z,100336.47
2022-10-01T12:49:04.184Z,100344.41
2022-10-01T12:51:44.741Z,100333.78
2022-10-01T12:54:52.372Z,100331.16
2022-10-01T12:57:36.963Z,100335.59
2022-10-01T13:00:11.712Z,100329.41
2022-10-01T13:03:15.615Z,100330.31
2022-10-01T13:05:53.820Z,100335.59
2022-10-01T13:08:42.420Z,100339.94
2022-10-01T13:11:22.537Z,100335.53
2022-10-01T13:13:52.345Z,100335.63
2022-10-01T13:16:29.036Z,100332.06
2022-10-01T13:19:04.874Z,100330.28
2022-10-01T13:21:47.129Z,100330.25
2022-10-01T13:24:20.112Z,100332.75
2022-10-01T13:26:56.202Z,100327.47
2022-10-01T13:29:34.155Z,100323.91
2022-10-01T13:32:03.797Z,100318.66
2022-10-01T13:34:40.968Z,100316.94
2022-10-01T13:37:14.716Z,100318.72
2022-10-01T13:39:43.567Z,100323.16
2022-10-01T13:42:23.010Z,100327.56
2022-10-01T13:44:56.521Z,100333.75
2022-10-01T13:47:25.657Z,100331.91
2022-10-01T13:50:00.300Z,100331.81
2022-10-01T13:52:28.773Z,100329.06
2022-10-01T13:54:58.745Z,100326.34
2022-10-01T13:57:32.057Z,100331.56
2022-10-01T14:00:02.551Z,100327.22
2022-10-01T14:02:34.219Z,100322.84
2022-10-01T14:05:27.015Z,100332.69
2022-10-01T14:08:09.586Z,100341.78
2022-10-01T14:10:58.148Z,100344.44
2022-10-01T14:13:46.971Z,100338.22
2022-10-01T14:16:16.415Z,100352.47
2022-10-01T14:18:49.068Z,100347.13
2022-10-01T14:21:29.970Z,100343.56
2022-10-01T14:24:05.439Z,100351.56
2022-10-01T14:26:43.493Z,100355.13
2022-10-01T14:29:24.527Z,100356.00
2022-10-01T14:32:04.211Z,100355.13
2022-10-01T14:34:43.164Z,100355.09
2022-10-01T14:37:17.363Z,100357.78
2022-10-01T14:39:45.631Z,100356.00
2022-10-01T14:42:17.400Z,100357.78
2022-10-01T14:44:48.188Z,100356.00
2022-10-01T14:47:21.213Z,100371.97
2022-10-01T14:49:50.305Z,100366.66
2022-10-01T14:52:23.985Z,100369.31
2022-10-01T14:55:00.534Z,100370.19
2022-10-01T14:57:33.345Z,100388.81
2022-10-01T15:00:08.095Z,100372.84
2022-10-01T15:02:36.003Z,100364.00
2022-10-01T15:05:21.089Z,100358.66
2022-10-01T15:07:49.079Z,100377.28
2022-10-01T15:10:19.262Z,100362.13
2022-10-01T15:12:50.690Z,100355.94
2022-10-01T15:15:22.552Z,100350.63
2022-10-01T15:17:51.230Z,100354.94
2022-10-01T15:20:19.342Z,100356.69
2022-10-01T15:22:59.017Z,100357.53
2022-10-01T15:25:31.202Z,100352.25
2022-10-01T15:27:59.451Z,100359.13
2022-10-01T15:30:29.297Z,100350.22
2022-10-01T15:32:57.895Z,100352.09
2022-10-01T15:35:26.573Z,100357.41
2022-10-01T15:37:55.429Z,100353.72
2022-10-01T15:40:29.520Z,100356.44
2022-10-01T15:43:25.238Z,100355.53
2022-10-01T15:46:17.428Z,100360.03
2022-10-01T15:48:46.016Z,100362.75
2022-10-01T15:51:20.291Z,100360.03
2022-10-01T15:53:48.310Z,100362.69
2022-10-01T15:56:19.768Z,100364.47
2022-10-01T15:58:51.659Z,100360.84
2022-10-01T16:01:24.105Z,100365.22
2022-10-01T16:04:00.077Z,100366.00
2022-10-01T16:06:30.550Z,100367.06
2022-10-01T16:09:06.478Z,100368.88
2022-10-01T16:11:51.969Z,100370.72
2022-10-01T16:14:36.702Z,100371.47
2022-10-01T16:17:28.325Z,100374.97
2022-10-01T16:19:58.702Z,100375.69
2022-10-01T16:22:31.766Z,100370.19
2022-10-01T16:25:01.597Z,100375.22
2022-10-01T16:27:32.660Z,100375.06
2022-10-01T16:30:08.074Z,100376.06
2022-10-01T16:32:37.538Z,100386.75
2022-10-01T16:35:24.526Z,100376.78
2022-10-01T16:37:54.913Z,100386.41
2022-10-01T16:40:25.381Z,100390.81
2022-10-01T16:42:54.090Z,100389.06
2022-10-01T16:45:24.312Z,100382.00
2022-10-01T16:47:55.606Z,100398.03
2022-10-01T16:50:24.725Z,100391.00
2022-10-01T16:52:53.795Z,100400.50
2022-10-01T16:55:24.330Z,100405.59
2022-10-01T16:57:54.621Z,100416.03
2022-10-01T17:00:24.672Z,100409.63
2022-10-01T17:02:54.486Z,100408.81
2022-10-01T17:05:25.323Z,100422.13
2022-10-01T17:07:53.746Z,100421.28
2022-10-01T17:10:23.536Z,100408.78
2022-10-01T17:12:51.484Z,100415.88
2022-10-01T17:15:23.254Z,100408.59
2022-10-01T17:17:53.256Z,100428.13
2022-10-01T17:20:22.128Z,100423.56
2022-10-01T17:22:50.495Z,100424.22
2022-10-01T17:25:20.414Z,100425.22
2022-10-01T17:27:49.093Z,100430.50
2022-10-01T17:30:17.773Z,100423.44
2022-10-01T17:32:46.672Z,100437.63
2022-10-01T17:35:17.103Z,100440.94
2022-10-01T17:37:44.999Z,100446.31
2022-10-01T17:40:13.018Z,100442.84
2022-10-01T17:42:41.236Z,100445.50
2022-10-01T17:45:11.930Z,100447.19
2022-10-01T17:47:44.985Z,100449.75
2022-10-01T17:50:13.061Z,100449.63
2022-10-01T17:52:42.452Z,100454.78
2022-10-01T17:55:12.175Z,100458.25
2022-10-01T17:57:40.241Z,100454.44
2022-10-01T18:00:09.323Z,100466.59
2022-10-01T18:02:42.101Z,100466.47
2022-10-01T18:05:12.679Z,100461.94
2022-10-01T18:07:42.299Z,100464.22
2022-10-01T18:10:12.610Z,100464.09
2022-10-01T18:12:40.843Z,100463.16
2022-10-01T18:15:09.960Z,100463.06
2022-10-01T18:17:43.401Z,100464.63
2022-10-01T18:20:19.825Z,100459.19
2022-10-01T18:22:49.290Z,100472.22
2022-10-01T18:25:19.427Z,100467.59
2022-10-01T18:27:50.017Z,100469.25
2022-10-01T18:30:20.288Z,100482.44
2022-10-01T18:32:51.915Z,100478.81
2022-10-01T18:35:23.266Z,100477.78
2022-10-01T18:37:54.182Z,100480.28
2022-10-01T18:40:24.878Z,100474.03
2022-10-01T18:42:58.825Z,100478.19
2022-10-01T18:45:56.084Z,100485.81
2022-10-01T18:48:45.560Z,100478.34
2022-10-01T18:51:34.718Z,100476.53
2022-10-01T18:54:18.676Z,100486.41
2022-10-01T18:56:57.544Z,100489.09
2022-10-01T18:59:48.293Z,100488.97
2022-10-01T19:02:35.265Z,100491.63
2022-10-01T19:05:45.987Z,100493.06
2022-10-01T19:08:29.439Z,100492.25
2022-10-01T19:11:08.037Z,100482.66
2022-10-01T19:13:47.023Z,100479.19
2022-10-01T19:16:29.168Z,100486.16
2022-10-01T19:19:08.737Z,100485.28
2022-10-01T19:21:45.571Z,100487.91
2022-10-01T19:24:41.349Z,100485.22
2022-10-01T19:27:21.464Z,100493.19
2022-10-01T19:30:02.716Z,100477.25
2022-10-01T19:32:37.218Z,100489.19
2022-10-01T19:35:14.298Z,100482.50
2022-10-01T19:37:47.029Z,100486.72
2022-10-01T19:40:22.653Z,100493.16
2022-10-01T19:43:00.297Z,100499.53
2022-10-01T19:45:36.158Z,100506.53
2022-10-01T19:48:10.594Z,100510.66
2022-10-01T19:50:42.486Z,100512.13
2022-10-01T19:53:20.345Z,100510.81
2022-10-01T19:55:49.517Z,100511.59
2022-10-01T19:58:21.548Z,100513.31
2022-10-01T20:00:55.020Z,100510.09
2022-10-01T20:03:33.233Z,100518.56
2022-10-01T20:06:05.995Z,100516.00
2022-10-01T20:08:38.926Z,100523.03
2022-10-01T20:11:14.722Z,100521.63
2022-10-01T20:14:00.770Z,100529.38
2022-10-01T20:16:36.364Z,100524.41
2022-10-01T20:19:16.200Z,100531.41
2022-10-01T20:21:50.085Z,100528.81
2022-10-01T20:24:36.142Z,100531.78
2022-10-01T20:27:16.998Z,100524.94
2022-10-01T20:29:51.589Z,100516.97
2022-10-01T20:32:25.852Z,100530.53
2022-10-01T20:35:07.579Z,100541.22
2022-10-01T20:37:52.870Z,100535.13
2022-10-01T20:40:29.388Z,100536.34
2022-10-01T20:43:03.970Z,100540.09
2022-10-01T20:45:38.114Z,100536.84
2022-10-01T20:48:13.319Z,100545.78
2022-10-01T20:50:44.944Z,100551.53
2022-10-01T20:53:33.994Z,100550.63
2022-10-01T20:56:12.300Z,100549.56
2022-10-01T20:58:47.169Z,100552.63
2022-10-01T21:01:21.674Z,100550.69
2022-10-01T21:03:54.928Z,100546.47
2022-10-01T21:06:26.942Z,100534.91
2022-10-01T21:08:59.402Z,100542.31
2022-10-01T21:11:33.387Z,100546.19
2022-10-01T21:14:17.914Z,100545.19
2022-10-01T21:17:01.752Z,100547.66
2022-10-01T21:19:42.366Z,100540.41
2022-10-01T21:22:26.403Z,100548.19
2022-10-01T21:25:03.729Z,100543.72
2022-10-01T21:27:47.665Z,100536.59
2022-10-01T21:30:18.193Z,100527.13
2022-10-01T21:33:07.180Z,100513.09
2022-10-01T21:35:45.336Z,100528.00
2022-10-01T21:38:22.718Z,100528.13
2022-10-01T21:41:29.248Z,100524.66
2022-10-01T21:44:17.642Z,100521.13
2022-10-01T21:46:55.144Z,100513.81
2022-10-01T21:49:38.596Z,100516.19
2022-10-01T21:52:13.884Z,100522.56
2022-10-01T21:55:00.819Z,100526.13
2022-10-01T21:57:54.983Z,100522.56
2022-10-01T22:00:26.339Z,100521.75
2022-10-01T22:03:07.243Z,100526.16
2022-10-01T22:05:43.155Z,100520.00
2022-10-01T22:08:35.762Z,100526.16
2022-10-01T22:11:09.254Z,100518.97
2022-10-01T22:13:41.445Z,100515.56
2022-10-01T22:16:15.377Z,100513.22
2022-10-01T22:18:47.241Z,100519.69
2022-10-01T22:21:24.976Z,100518.53
2022-10-01T22:24:00.545Z,100518.59
2022-10-01T22:26:33.896Z,100521.41
2022-10-01T22:29:04.896Z,100533.06
2022-10-01T22:31:36.520Z,100527.44
2022-10-01T22:34:09.348Z,100527.94
2022-10-01T22:36:45.812Z,100533.47
2022-10-01T22:39:21.475Z,100531.28
2022-10-01T22:41:54.161Z,100528.72
2022-10-01T22:44:24.109Z,100528.16
2022-10-01T22:47:31.293Z,100532.56
2022-10-01T22:50:22.510Z,100525.56
2022-10-01T22:53:03.561Z,100526.41
2022-10-01T22:55:44.154Z,100524.16
2022-10-01T22:58:25.772Z,100523.50
2022-10-01T23:01:04.482Z,100520.25
2022-10-01T23:03:49.647Z,100525.03
2022-10-01T23:06:25.169Z,100526.06
2022-10-01T23:09:04.041Z,100527.03
2022-10-01T23:11:41.267Z,100524.38
2022-10-01T23:14:17.907Z,100525.81
2022-10-01T23:16:53.848Z,100529.56
2022-10-01T23:19:34.773Z,100526.94
2022-10-01T23:22:08.758Z,100531.28
2022-10-01T23:24:54.230Z,100529.38
2022-10-01T23:27:33.835Z,100525.88
2022-10-01T23:30:09.719Z,100528.16
2022-10-01T23:33:02.132Z,100525.59
2022-10-01T23:35:42.828Z,100516.94
2022-10-01T23:38:28.605Z,100523.06
2022-10-01T23:41:02.475Z,100523.41
2022-10-01T23:43:37.016Z,100522.63
2022-10-01T23:46:09.094Z,100523.25
2022-10-01T23:48:45.027Z,100519.63
2022-10-01T23:51:20.444Z,100514.84
2022-10-01T23:53:56.210Z,100508.59
2022-10-01T23:56:47.129Z,100517.09
2022-10-01T23:59:22.522Z,100507.00
